createdAt,value
2023-05-11T00:02:00.068Z,15.27
2023-05-11T00:06:03.849Z,15.24
2023-05-11T00:10:11.900Z,15.19
2023-05-11T00:14:14.828Z,15.13
2023-05-11T00:18:17.927Z,15.13
2023-05-11T00:22:20.663Z,15.10
2023-05-11T00:26:28.860Z,14.99
2023-05-11T00:30:32.693Z,14.94
2023-05-11T00:34:36.362Z,14.85
2023-05-11T00:38:41.446Z,14.81
2023-05-11T00:42:46.535Z,14.73
2023-05-11T00:46:49.989Z,14.66
2023-05-11T00:50:53.502Z,14.66
2023-05-11T00:54:57.285Z,14.61
2023-05-11T00:59:02.826Z,14.60
2023-05-11T01:03:07.553Z,14.58
2023-05-11T01:07:15.721Z,14.55
2023-05-11T01:11:27.018Z,14.53
2023-05-11T01:15:38.726Z,14.51
2023-05-11T01:19:46.819Z,14.48
2023-05-11T01:24:28.803Z,14.45
2023-05-11T01:28:52.149Z,14.42
2023-05-11T01:33:01.355Z,14.39
2023-05-11T01:37:11.014Z,14.37
2023-05-11T01:41:18.285Z,14.34
2023-05-11T01:45:24.086Z,14.30
2023-05-11T01:49:31.163Z,14.29
2023-05-11T01:53:38.831Z,14.26
2023-05-11T01:57:42.491Z,14.24
2023-05-11T02:01:46.002Z,14.21
2023-05-11T02:05:52.597Z,14.19
2023-05-11T02:09:58.409Z,14.17
2023-05-11T02:14:03.375Z,14.14
2023-05-11T02:18:09.259Z,14.13
2023-05-11T02:22:14.756Z,14.11
2023-05-11T02:26:18.480Z,14.09
2023-05-11T02:30:22.246Z,14.06
2023-05-11T02:34:28.107Z,14.04
2023-05-11T02:38:35.920Z,14.03
2023-05-11T02:42:44.140Z,14.02
2023-05-11T02:46:51.719Z,14.03
2023-05-11T02:50:57.773Z,14.03
2023-05-11T02:55:04.876Z,14.02
2023-05-11T02:59:08.262Z,13.99
2023-05-11T03:03:12.476Z,13.97
2023-05-11T03:07:15.888Z,13.98
2023-05-11T03:11:22.701Z,13.97
2023-05-11T03:15:26.656Z,13.94
2023-05-11T03:19:31.240Z,13.95
2023-05-11T03:23:37.713Z,13.95
2023-05-11T03:27:44.269Z,13.95
2023-05-11T03:31:49.636Z,13.96
2023-05-11T03:35:56.032Z,13.99
2023-05-11T03:40:01.860Z,14.00
2023-05-11T03:44:09.954Z,14.03
2023-05-11T03:48:15.912Z,14.04
2023-05-11T03:52:20.559Z,14.05
2023-05-11T03:56:23.750Z,14.08
2023-05-11T04:00:28.724Z,14.11
2023-05-11T04:04:32.987Z,14.12
2023-05-11T04:08:36.579Z,14.15
2023-05-11T04:12:40.201Z,14.18
2023-05-11T04:16:45.640Z,14.20
2023-05-11T04:20:48.902Z,14.24
2023-05-11T04:24:52.406Z,14.27
2023-05-11T04:28:56.345Z,14.30
2023-05-11T04:33:01.294Z,14.34
2023-05-11T04:37:07.515Z,14.37
2023-05-11T04:41:12.590Z,14.40
2023-05-11T04:45:16.200Z,14.41
2023-05-11T04:49:20.935Z,14.42
2023-05-11T04:53:24.318Z,14.40
2023-05-11T04:57:27.909Z,14.41
2023-05-11T05:01:31.016Z,14.41
2023-05-11T05:05:36.301Z,14.42
2023-05-11T05:09:39.410Z,14.42
2023-05-11T05:13:43.091Z,14.45
2023-05-11T05:17:46.470Z,14.45
2023-05-11T05:21:51.449Z,14.49
2023-05-11T05:25:54.837Z,14.46
2023-05-11T05:29:58.435Z,14.40
2023-05-11T05:34:01.705Z,14.37
2023-05-11T05:38:06.580Z,14.39
2023-05-11T05:42:09.818Z,14.40
2023-05-11T05:46:13.607Z,14.37
2023-05-11T05:50:17.768Z,14.37
2023-05-11T05:54:23.125Z,14.41
2023-05-11T05:58:26.385Z,14.42
2023-05-11T06:02:30.215Z,14.43
2023-05-11T06:06:33.599Z,14.49
2023-05-11T06:10:38.733Z,14.55
2023-05-11T06:14:43.295Z,14.65
2023-05-11T06:18:48.330Z,14.79
2023-05-11T06:22:52.080Z,14.92
2023-05-11T06:26:57.487Z,15.08
2023-05-11T06:31:01.613Z,15.21
2023-05-11T06:35:05.036Z,15.39
2023-05-11T06:39:08.522Z,15.63
2023-05-11T06:43:13.633Z,15.93
2023-05-11T06:47:17.088Z,16.29
2023-05-11T06:51:22.046Z,16.78
2023-05-11T06:55:25.597Z,17.29
2023-05-11T06:59:30.744Z,17.71
2023-05-11T07:03:34.397Z,18.00
2023-05-11T07:07:37.967Z,18.16
2023-05-11T07:11:41.639Z,18.27
2023-05-11T07:15:46.496Z,18.38
2023-05-11T07:19:52.466Z,18.47
2023-05-11T07:23:55.884Z,18.58
2023-05-11T07:27:59.385Z,18.69
2023-05-11T07:32:04.518Z,18.82
2023-05-11T07:36:08.794Z,18.94
2023-05-11T07:40:12.834Z,19.04
2023-05-11T07:44:17.512Z,19.13
2023-05-11T07:48:22.616Z,19.19
2023-05-11T07:52:26.810Z,19.23
2023-05-11T07:56:30.963Z,19.27
2023-05-11T08:00:34.408Z,19.23
2023-05-11T08:04:39.632Z,19.17
2023-05-11T08:08:42.866Z,19.12
2023-05-11T08:12:46.484Z,19.15
2023-05-11T08:16:50.886Z,19.37
2023-05-11T08:20:55.647Z,19.87
2023-05-11T08:24:59.280Z,20.49
2023-05-11T08:29:03.136Z,21.07
2023-05-11T08:33:20.138Z,21.52
2023-05-11T08:37:31.347Z,21.77
2023-05-11T08:41:34.697Z,21.89
2023-05-11T08:45:40.972Z,21.91
2023-05-11T08:49:44.879Z,21.91
2023-05-11T08:53:50.139Z,21.93
2023-05-11T08:57:55.486Z,22.02
2023-05-11T09:01:59.780Z,22.14
2023-05-11T09:06:07.521Z,22.30
2023-05-11T09:10:13.994Z,22.38
2023-05-11T09:14:17.632Z,22.44
2023-05-11T09:18:21.176Z,22.45
2023-05-11T09:22:24.277Z,22.44
2023-05-11T09:26:29.953Z,22.41
2023-05-11T09:30:36.160Z,22.40
2023-05-11T09:34:43.112Z,22.39
2023-05-11T09:38:47.373Z,22.38
2023-05-11T09:42:52.340Z,22.25
2023-05-11T09:47:13.379Z,22.27
2023-05-11T09:51:21.407Z,22.23
2023-05-11T09:55:25.441Z,22.24
2023-05-11T09:59:51.283Z,22.24
2023-05-11T10:04:02.672Z,22.18
2023-05-11T10:08:09.831Z,22.03
2023-05-11T10:12:14.653Z,21.89
2023-05-11T10:16:21.943Z,21.74
2023-05-11T10:20:26.320Z,21.56
2023-05-11T10:24:30.244Z,21.41
2023-05-11T10:28:33.768Z,21.19
2023-05-11T10:32:39.451Z,20.99
2023-05-11T10:36:43.358Z,20.78
2023-05-11T10:40:49.110Z,20.61
2023-05-11T10:45:23.589Z,20.47
2023-05-11T10:49:51.720Z,20.31
2023-05-11T10:54:07.996Z,20.16
2023-05-11T10:58:17.274Z,19.98
2023-05-11T11:02:21.139Z,19.81
2023-05-11T11:06:26.154Z,19.77
2023-05-11T11:10:35.212Z,19.81
2023-05-11T11:14:58.306Z,20.00
2023-05-11T11:19:46.298Z,20.30
2023-05-11T11:23:51.470Z,20.59
2023-05-11T11:28:00.622Z,20.79
2023-05-11T11:32:29.231Z,20.90
2023-05-11T11:37:04.326Z,21.01
2023-05-11T11:41:11.711Z,21.19
2023-05-11T11:45:33.348Z,21.48
2023-05-11T11:49:40.605Z,21.70
2023-05-11T11:54:09.289Z,21.88
2023-05-11T11:58:14.756Z,21.98
2023-05-11T12:02:18.500Z,22.03
2023-05-11T12:06:24.451Z,22.06
2023-05-11T12:10:30.246Z,22.06
2023-05-11T12:14:36.617Z,22.01
2023-05-11T12:18:40.099Z,21.88
2023-05-11T12:22:45.105Z,21.77
2023-05-11T12:26:48.395Z,21.68
2023-05-11T12:30:59.100Z,21.64
2023-05-11T12:35:06.607Z,21.66
2023-05-11T12:39:10.465Z,21.69
2023-05-11T12:43:19.360Z,21.75
2023-05-11T12:47:24.446Z,21.81
2023-05-11T12:51:47.420Z,21.84
2023-05-11T12:55:59.475Z,21.83
2023-05-11T13:00:13.321Z,21.74
2023-05-11T13:04:18.770Z,21.54
2023-05-11T13:08:22.456Z,21.37
2023-05-11T13:12:26.381Z,21.16
2023-05-11T13:16:32.235Z,20.95
2023-05-11T13:20:38.186Z,20.67
2023-05-11T13:24:41.619Z,20.43
2023-05-11T13:28:50.231Z,20.21
2023-05-11T13:32:58.583Z,20.01
2023-05-11T13:37:03.676Z,19.84
2023-05-11T13:41:07.734Z,19.69
2023-05-11T13:45:12.525Z,19.51
2023-05-11T13:49:16.013Z,19.35
2023-05-11T13:53:20.825Z,19.18
2023-05-11T13:57:24.836Z,19.02
2023-05-11T14:01:28.376Z,18.88
2023-05-11T14:05:31.691Z,18.77
2023-05-11T14:09:37.410Z,18.70
2023-05-11T14:13:40.984Z,18.63
2023-05-11T14:17:44.701Z,18.54
2023-05-11T14:21:48.864Z,18.48
2023-05-11T14:25:53.694Z,18.42
2023-05-11T14:29:57.210Z,18.36
2023-05-11T14:34:00.151Z,18.28
2023-05-11T14:38:05.001Z,18.19
2023-05-11T14:42:10.392Z,18.09
2023-05-11T14:46:14.463Z,17.97
2023-05-11T14:50:18.233Z,17.84
2023-05-11T14:54:21.717Z,17.72
2023-05-11T14:58:26.486Z,17.61
2023-05-11T15:02:30.765Z,17.47
2023-05-11T15:06:34.209Z,17.36
2023-05-11T15:10:40.606Z,17.25
2023-05-11T15:14:45.437Z,17.16
2023-05-11T15:18:48.866Z,17.08
2023-05-11T15:22:52.421Z,17.00
2023-05-11T15:26:58.448Z,16.95
2023-05-11T15:31:03.562Z,16.90
2023-05-11T15:35:07.832Z,16.86
2023-05-11T15:39:11.061Z,16.81
2023-05-11T15:43:14.992Z,16.75
2023-05-11T15:47:20.225Z,16.70
2023-05-11T15:51:23.765Z,16.61
2023-05-11T15:55:27.109Z,16.56
2023-05-11T15:59:32.974Z,16.49
2023-05-11T16:03:38.000Z,16.43
2023-05-11T16:07:41.647Z,16.36
2023-05-11T16:11:46.173Z,16.28
2023-05-11T16:15:50.106Z,16.22
2023-05-11T16:19:55.114Z,16.15
2023-05-11T16:23:59.760Z,16.08
2023-05-11T16:28:04.087Z,16.00
2023-05-11T16:32:08.320Z,15.94
2023-05-11T16:36:13.609Z,15.88
2023-05-11T16:40:19.934Z,15.81
2023-05-11T16:44:23.418Z,15.74
2023-05-11T16:48:28.032Z,15.67
2023-05-11T16:52:33.812Z,15.59
2023-05-11T16:56:38.058Z,15.52
2023-05-11T17:00:41.453Z,15.47
2023-05-11T17:04:45.557Z,15.42
2023-05-11T17:08:49.931Z,15.37
2023-05-11T17:12:53.282Z,15.34
2023-05-11T17:16:56.316Z,15.31
2023-05-11T17:20:59.964Z,15.27
2023-05-11T17:25:06.596Z,15.25
2023-05-11T17:29:10.451Z,15.21
2023-05-11T17:33:14.294Z,15.21
2023-05-11T17:37:30.593Z,15.17
2023-05-11T17:41:35.816Z,15.14
2023-05-11T17:45:41.763Z,15.09
2023-05-11T17:49:45.318Z,15.05
2023-05-11T17:53:49.929Z,15.01
2023-05-11T17:57:55.202Z,14.98
2023-05-11T18:01:59.320Z,14.95
2023-05-11T18:06:04.920Z,14.91
2023-05-11T18:10:10.084Z,14.87
2023-05-11T18:14:15.423Z,14.84
2023-05-11T18:18:20.056Z,14.79
2023-05-11T18:22:25.376Z,14.76
2023-05-11T18:26:29.351Z,14.75
2023-05-11T18:30:36.417Z,14.74
2023-05-11T18:34:41.486Z,14.72
2023-05-11T18:38:45.640Z,14.71
2023-05-11T18:42:49.217Z,14.69
2023-05-11T18:46:54.082Z,14.68
2023-05-11T18:50:58.147Z,14.67
2023-05-11T18:55:01.747Z,14.65
2023-05-11T18:59:06.377Z,14.63
2023-05-11T19:03:11.164Z,14.62
2023-05-11T19:07:15.479Z,14.60
2023-05-11T19:11:19.984Z,14.58
2023-05-11T19:15:24.034Z,14.55
2023-05-11T19:19:29.291Z,14.53
2023-05-11T19:23:35.670Z,14.50
2023-05-11T19:27:41.069Z,14.48
2023-05-11T19:31:45.346Z,14.44
2023-05-11T19:35:50.453Z,14.42
2023-05-11T19:39:57.105Z,14.40
2023-05-11T19:44:06.155Z,14.39
2023-05-11T19:48:09.851Z,14.39
2023-05-11T19:52:14.729Z,14.38
2023-05-11T19:56:18.257Z,14.38
2023-05-11T20:00:25.254Z,14.36
2023-05-11T20:04:28.809Z,14.35
2023-05-11T20:08:41.307Z,14.35
2023-05-11T20:12:44.534Z,14.34
2023-05-11T20:16:49.560Z,14.34
2023-05-11T20:20:53.777Z,14.31
2023-05-11T20:24:59.316Z,14.31
2023-05-11T20:29:03.301Z,14.31
2023-05-11T20:37:13.185Z,14.31
2023-05-11T20:41:17.799Z,14.30
2023-05-11T20:45:22.293Z,14.30
2023-05-11T20:49:38.225Z,14.29
2023-05-11T20:53:43.483Z,14.29
2023-05-11T20:57:48.652Z,14.30
2023-05-11T21:01:52.149Z,14.29
2023-05-11T21:05:56.303Z,14.29
2023-05-11T21:10:01.117Z,14.28
2023-05-11T21:14:05.950Z,14.28
2023-05-11T21:18:10.003Z,14.27
2023-05-11T21:22:13.442Z,14.27
2023-05-11T21:26:16.824Z,14.26
2023-05-11T21:30:21.822Z,14.26
2023-05-11T21:34:25.501Z,14.24
2023-05-11T21:38:28.695Z,14.23
2023-05-11T21:42:35.290Z,14.20
2023-05-11T21:46:39.931Z,14.20
2023-05-11T21:50:43.804Z,14.18
2023-05-11T21:54:47.084Z,14.15
2023-05-11T21:58:50.793Z,14.15
2023-05-11T22:02:55.566Z,14.14
2023-05-11T22:07:01.579Z,14.13
2023-05-11T22:11:05.356Z,14.12
2023-05-11T22:15:10.176Z,14.11
2023-05-11T22:19:15.076Z,14.10
2023-05-11T22:23:19.516Z,14.08
2023-05-11T22:27:23.425Z,14.07
2023-05-11T22:31:27.722Z,14.06
2023-05-11T22:35:32.711Z,14.04
2023-05-11T22:39:36.136Z,14.02
2023-05-11T22:43:39.820Z,13.99
2023-05-11T22:47:43.568Z,13.98
2023-05-11T22:51:49.923Z,13.95
2023-05-11T22:55:53.648Z,13.94
2023-05-11T22:59:57.513Z,13.89
2023-05-11T23:04:01.273Z,13.89
2023-05-11T23:08:05.893Z,13.90
2023-05-11T23:12:09.840Z,13.88
2023-05-11T23:16:15.818Z,13.86
2023-05-11T23:20:19.153Z,13.86
2023-05-11T23:24:24.881Z,13.87
2023-05-11T23:28:28.669Z,13.85
2023-05-11T23:32:31.913Z,13.85
2023-05-11T23:36:35.240Z,13.86
2023-05-11T23:40:40.597Z,13.85
2023-05-11T23:44:44.072Z,13.85
2023-05-11T23:48:47.596Z,13.85
2023-05-11T23:52:51.252Z,13.86
2023-05-11T23:56:56.860Z,13.86
